Time;durP1;ratioP1;P1;durP2;ratioP2;P2;SDS_P1;SDS_P2;PMS_P1;PMS_P2;Temp;Humidity;BMP_temperature;BMP_pressure;BME280_temperature;BME280_humidity;BME280_pressure;Samples;Min_cycle;Max_cycle;Signal;HPM_P1;HPM_P2
2021/03/16 00:02:19;;;;;;;1.92;0.90;;;18.50;77.00;;;;;;5013211;28;95245;-46
2021/03/16 00:04:53;;;;;;;0.80;0.80;;;18.60;77.00;;;;;;4994908;28;95722;-48
2021/03/16 00:07:31;;;;;;;2.97;1.40;;;18.60;77.10;;;;;;5004275;28;98315;-45
2021/03/16 00:10:00;;;;;;;1.35;0.95;;;18.60;76.90;;;;;;5013622;28;95999;-48
2021/03/16 00:12:30;;;;;;;1.55;1.17;;;18.70;77.00;;;;;;5001976;28;96083;-46
2021/03/16 00:15:00;;;;;;;2.40;1.25;;;18.70;77.00;;;;;;5019102;28;97716;-46
2021/03/16 00:17:31;;;;;;;2.75;1.45;;;18.80;76.90;;;;;;5015191;28;95971;-46
2021/03/16 00:20:02;;;;;;;;;;;18.90;76.80;;;;;;5010886;28;96124;-45
2021/03/16 00:22:32;;;;;;;2.75;1.35;;;18.90;76.80;;;;;;5004938;28;95397;-45
2021/03/16 00:25:16;;;;;;;4.25;1.83;;;19.00;76.60;;;;;;5004675;28;95745;-46
2021/03/16 00:27:48;;;;;;;3.75;1.40;;;19.10;76.60;;;;;;5021790;28;95955;-45
2021/03/16 00:30:25;;;;;;;3.65;1.25;;;19.10;76.50;;;;;;5020863;28;96602;-46
2021/03/16 00:32:56;;;;;;;4.78;1.88;;;19.10;76.40;;;;;;5015641;28;95927;-46
2021/03/16 00:35:25;;;;;;;3.75;1.50;;;19.00;76.20;;;;;;5032792;27;96449;-45
2021/03/16 00:37:57;;;;;;;3.05;1.48;;;19.10;76.40;;;;;;5021729;28;96920;-37
2021/03/16 00:40:28;;;;;;;1.33;1.08;;;19.20;76.40;;;;;;5016790;28;96534;-40
2021/03/16 00:42:58;;;;;;;2.83;1.20;;;19.20;76.20;;;;;;5020881;28;95621;-38
2021/03/16 00:45:29;;;;;;;3.35;2.03;;;19.20;76.00;;;;;;5021232;28;96310;-47
2021/03/16 00:48:00;;;;;;;;;;;19.20;76.00;;;;;;5016186;27;96488;-47
2021/03/16 00:50:31;;;;;;;3.05;1.50;;;19.30;76.00;;;;;;5016240;28;95732;-39
2021/03/16 00:53:02;;;;;;;3.25;1.50;;;19.30;75.80;;;;;;5015189;28;96127;-37
2021/03/16 00:55:42;;;;;;;2.33;1.35;;;19.40;75.70;;;;;;5002343;28;96378;-36
2021/03/16 00:58:15;;;;;;;2.65;1.20;;;19.40;75.40;;;;;;5032156;27;96330;-47
2021/03/16 01:00:45;;;;;;;;;;;19.50;75.40;;;;;;5021081;28;95971;-47
2021/03/16 01:03:14;;;;;;;1.38;1.10;;;19.50;75.30;;;;;;5000978;28;95775;-46
2021/03/16 01:05:44;;;;;;;3.72;1.63;;;19.50;75.20;;;;;;5018145;28;96297;-47
2021/03/16 01:08:14;;;;;;;2.13;1.40;;;19.50;75.20;;;;;;5015476;28;96074;-46
2021/03/16 01:10:45;;;;;;;3.83;1.70;;;19.50;75.10;;;;;;5017749;28;96345;-47
2021/03/16 01:13:15;;;;;;;3.03;1.65;;;19.60;75.00;;;;;;5001737;28;98554;-46
2021/03/16 01:15:47;;;;;;;1.77;1.13;;;19.60;74.90;;;;;;5020288;28;95815;-47
2021/03/16 01:18:18;;;;;;;1.73;1.23;;;19.60;74.90;;;;;;5017768;28;96253;-47
2021/03/16 01:20:48;;;;;;;2.60;1.37;;;19.70;74.70;;;;;;5014780;27;95652;-39
2021/03/16 01:23:17;;;;;;;1.60;1.27;;;19.70;74.70;;;;;;5008632;28;95833;-40
2021/03/16 01:26:07;;;;;;;3.63;1.10;;;19.70;74.70;;;;;;5009180;28;95784;-48
2021/03/16 01:28:37;;;;;;;3.78;1.58;;;19.80;74.60;;;;;;5009711;28;96244;-37
2021/03/16 01:31:09;;;;;;;2.60;1.50;;;19.90;74.50;;;;;;5012105;28;95838;-39
2021/03/16 01:33:38;;;;;;;1.70;1.30;;;20.00;74.00;;;;;;5010682;28;96165;-39
2021/03/16 01:36:09;;;;;;;2.60;1.50;;;20.10;73.80;;;;;;4988932;28;95332;-47
2021/03/16 01:38:40;;;;;;;3.38;1.42;;;20.20;73.60;;;;;;5006753;28;97033;-47
2021/03/16 01:41:10;;;;;;;1.60;1.30;;;20.20;73.30;;;;;;5005478;28;95917;-39
2021/03/16 01:43:40;;;;;;;1.45;1.35;;;20.30;72.90;;;;;;5006846;28;95388;-47
2021/03/16 01:46:11;;;;;;;;;;;20.40;72.70;;;;;;5008005;28;97269;-49
2021/03/16 01:48:42;;;;;;;1.38;1.27;;;20.40;72.50;;;;;;5012219;28;98058;-47
2021/03/16 01:51:12;;;;;;;;;;;20.60;72.40;;;;;;5021236;28;96096;-47
2021/03/16 01:53:43;;;;;;;1.63;1.20;;;20.60;72.30;;;;;;5019297;28;95715;-38
2021/03/16 01:56:28;;;;;;;1.88;1.33;;;20.70;72.10;;;;;;5016192;28;95850;-38
2021/03/16 01:59:17;;;;;;;2.97;1.50;;;20.60;72.10;;;;;;4996836;28;95766;-47
2021/03/16 02:02:06;;;;;;;2.10;1.50;;;20.60;72.30;;;;;;5017311;28;95444;-46
2021/03/16 02:04:53;;;;;;;4.20;2.38;;;20.50;72.40;;;;;;5011829;28;95534;-47
2021/03/16 02:08:07;;;;;;;1.52;1.40;;;20.50;72.50;;;;;;5005691;28;95250;-46
2021/03/16 02:11:07;;;;;;;2.92;1.50;;;20.50;72.60;;;;;;5016133;28;96082;-46
2021/03/16 02:14:06;;;;;;;2.67;1.50;;;20.50;72.70;;;;;;5015065;28;95542;-37
2021/03/16 02:17:07;;;;;;;2.75;1.55;;;20.40;72.90;;;;;;5007777;28;95889;-37
2021/03/16 02:20:09;;;;;;;2.05;1.25;;;20.40;73.20;;;;;;5018909;28;95856;-38
2021/03/16 02:22:59;;;;;;;2.00;1.30;;;20.40;73.20;;;;;;5014638;28;95800;-37
2021/03/16 02:26:09;;;;;;;2.20;1.30;;;20.40;73.40;;;;;;5004279;27;95884;-37
2021/03/16 02:29:36;;;;;;;2.73;1.33;;;20.40;73.30;;;;;;5021157;28;95509;-37
2021/03/16 02:32:29;;;;;;;2.20;1.80;;;20.50;73.30;;;;;;5005217;28;95306;-38
2021/03/16 02:35:19;;;;;;;3.65;1.20;;;20.50;73.30;;;;;;5010468;28;95728;-39
2021/03/16 02:38:10;;;;;;;1.40;1.30;;;20.50;73.40;;;;;;4994106;28;95614;-38
2021/03/16 02:41:03;;;;;;;1.83;1.45;;;20.60;73.40;;;;;;5018855;27;95945;-38
2021/03/16 02:43:51;;;;;;;1.30;1.20;;;20.60;73.30;;;;;;5011619;28;95548;-37
2021/03/16 02:46:52;;;;;;;1.65;1.15;;;20.70;73.20;;;;;;5005031;28;95855;-38
2021/03/16 02:49:45;;;;;;;1.58;1.48;;;20.80;72.90;;;;;;5006834;28;95821;-46
2021/03/16 02:52:36;;;;;;;1.50;1.40;;;21.00;72.60;;;;;;5009048;28;95240;-45
2021/03/16 02:55:25;;;;;;;1.70;1.50;;;21.10;72.30;;;;;;5010502;28;95603;-46
2021/03/16 02:58:20;;;;;;;2.42;1.58;;;21.20;72.00;;;;;;5015637;28;95757;-45
2021/03/16 03:01:11;;;;;;;1.20;1.07;;;21.30;71.60;;;;;;4997895;28;95843;-45
2021/03/16 03:04:01;;;;;;;1.52;1.33;;;21.40;71.40;;;;;;5014238;28;95721;-46
2021/03/16 03:06:51;;;;;;;1.55;1.40;;;21.50;71.00;;;;;;5013912;28;95966;-45
2021/03/16 03:09:39;;;;;;;2.78;1.67;;;21.60;70.90;;;;;;5021972;28;95696;-47
2021/03/16 03:12:27;;;;;;;1.20;1.10;;;21.60;70.70;;;;;;5010171;28;95924;-46
2021/03/16 03:15:16;;;;;;;1.38;1.27;;;21.60;70.80;;;;;;5011985;28;95888;-46
2021/03/16 03:18:06;;;;;;;1.23;1.13;;;21.70;70.70;;;;;;5010098;28;95819;-47
2021/03/16 03:20:55;;;;;;;2.20;1.20;;;21.80;70.50;;;;;;5008235;28;95707;-47
2021/03/16 03:23:53;;;;;;;1.23;1.13;;;21.80;70.40;;;;;;5006264;28;95886;-46
2021/03/16 03:27:05;;;;;;;1.20;1.15;;;21.90;70.40;;;;;;5013281;28;96537;-46
2021/03/16 03:29:55;;;;;;;1.48;1.38;;;21.90;70.20;;;;;;5018861;28;95872;-47
2021/03/16 03:32:44;;;;;;;1.42;1.30;;;22.00;70.10;;;;;;5004484;28;96200;-46
2021/03/16 03:35:35;;;;;;;1.40;1.30;;;22.00;70.20;;;;;;5012825;28;95789;-47
2021/03/16 03:38:26;;;;;;;1.40;1.30;;;22.10;70.00;;;;;;5018449;28;95747;-47
2021/03/16 03:41:15;;;;;;;1.13;1.03;;;22.10;69.90;;;;;;5011726;28;95852;-48
2021/03/16 03:44:07;;;;;;;1.20;1.10;;;22.20;69.80;;;;;;5009988;28;96338;-46
2021/03/16 03:46:57;;;;;;;2.65;1.50;;;22.30;69.70;;;;;;5004639;28;95830;-47
2021/03/16 03:49:48;;;;;;;2.13;1.20;;;22.30;69.60;;;;;;5010199;27;95621;-46
2021/03/16 03:52:38;;;;;;;1.67;1.40;;;22.30;69.40;;;;;;5014354;28;95905;-48
2021/03/16 03:55:29;;;;;;;1.40;1.30;;;22.40;70.20;;;;;;5015949;28;95807;-48
2021/03/16 03:58:19;;;;;;;1.30;1.00;;;22.40;69.40;;;;;;5008018;28;95736;-47
2021/03/16 04:01:09;;;;;;;1.70;1.60;;;22.50;69.20;;;;;;4997598;28;97543;-47
2021/03/16 04:03:56;;;;;;;1.40;1.30;;;22.50;69.10;;;;;;5016531;28;96207;-47
2021/03/16 04:06:45;;;;;;;1.85;1.17;;;22.50;69.30;;;;;;5008872;28;95669;-46
2021/03/16 04:09:34;;;;;;;2.45;1.15;;;22.60;69.10;;;;;;5014839;28;97089;-48
2021/03/16 04:12:23;;;;;;;1.50;1.40;;;22.60;68.90;;;;;;5006061;28;95893;-47
2021/03/16 04:15:15;;;;;;;1.30;1.20;;;22.70;68.90;;;;;;5010352;28;95731;-47
2021/03/16 04:18:05;;;;;;;1.77;1.45;;;22.70;68.80;;;;;;5015841;28;95706;-47
2021/03/16 04:20:53;;;;;;;1.98;1.38;;;22.80;69.00;;;;;;5013279;28;96085;-48
2021/03/16 04:23:41;;;;;;;1.60;1.50;;;22.80;68.90;;;;;;5004719;28;95290;-47
2021/03/16 04:26:30;;;;;;;1.50;1.25;;;22.80;68.90;;;;;;5015250;28;95743;-39
2021/03/16 04:29:19;;;;;;;1.30;1.20;;;22.80;68.90;;;;;;5013291;28;96286;-39
2021/03/16 04:32:09;;;;;;;2.50;1.75;;;22.90;68.80;;;;;;5010956;28;95825;-37
2021/03/16 04:34:57;;;;;;;1.35;1.15;;;23.00;68.60;;;;;;5015558;28;101368;-39
2021/03/16 04:37:45;;;;;;;1.60;1.50;;;23.00;68.50;;;;;;5017873;28;95514;-38
2021/03/16 04:40:34;;;;;;;0.93;0.93;;;23.10;68.40;;;;;;5019024;28;95614;-40
2021/03/16 04:43:23;;;;;;;1.58;1.27;;;23.10;68.30;;;;;;5015006;28;97202;-38
2021/03/16 04:46:13;;;;;;;1.30;1.20;;;23.20;68.20;;;;;;5013911;28;95306;-40
2021/03/16 04:49:01;;;;;;;1.40;1.30;;;23.20;68.30;;;;;;5010347;28;95315;-41
2021/03/16 04:51:50;;;;;;;1.77;1.60;;;23.30;68.10;;;;;;5011956;28;96011;-48
2021/03/16 04:54:38;;;;;;;1.52;1.42;;;23.30;67.90;;;;;;5016021;28;95987;-38
2021/03/16 04:57:28;;;;;;;1.60;1.45;;;23.30;68.00;;;;;;5013422;28;95780;-38
2021/03/16 05:00:19;;;;;;;2.25;1.42;;;23.30;67.90;;;;;;5011330;28;95600;-41
2021/03/16 05:03:07;;;;;;;;;;;23.40;67.90;;;;;;5010545;28;96348;-39
2021/03/16 05:05:56;;;;;;;1.50;1.40;;;23.40;67.80;;;;;;5014378;28;96082;-37
2021/03/16 05:08:45;;;;;;;1.50;1.40;;;23.50;67.90;;;;;;5020287;28;95619;-38
2021/03/16 05:11:33;;;;;;;1.73;1.20;;;23.50;67.80;;;;;;5014990;28;96036;-37
2021/03/16 05:14:22;;;;;;;1.70;1.60;;;23.60;67.60;;;;;;5007515;27;95775;-37
2021/03/16 05:17:12;;;;;;;1.65;1.55;;;23.50;67.70;;;;;;5002075;28;95794;-37
2021/03/16 05:20:02;;;;;;;1.70;1.60;;;23.40;68.10;;;;;;5008599;28;95791;-36
2021/03/16 05:22:50;;;;;;;1.88;1.75;;;23.40;68.30;;;;;;5015823;28;95705;-46
2021/03/16 05:25:39;;;;;;;2.63;1.80;;;23.40;68.50;;;;;;5012172;28;95775;-46
2021/03/16 05:28:28;;;;;;;1.80;1.50;;;23.30;68.60;;;;;;5019636;28;95950;-45
2021/03/16 05:31:18;;;;;;;2.30;1.90;;;23.30;68.60;;;;;;5014253;28;95646;-46
2021/03/16 05:34:07;;;;;;;3.28;2.03;;;23.30;68.80;;;;;;5002527;28;95308;-46
2021/03/16 05:36:56;;;;;;;3.17;1.48;;;23.20;69.10;;;;;;5011783;28;95829;-46
2021/03/16 05:39:46;;;;;;;1.95;1.70;;;23.20;69.00;;;;;;5018934;28;97241;-46
2021/03/16 05:42:36;;;;;;;3.95;2.28;;;23.20;69.20;;;;;;5012646;28;98331;-45
2021/03/16 05:45:26;;;;;;;2.80;2.00;;;23.20;69.20;;;;;;5008419;28;96021;-41
2021/03/16 05:48:15;;;;;;;4.75;1.88;;;23.10;69.30;;;;;;5021025;28;95644;-46
2021/03/16 05:51:06;;;;;;;2.13;1.83;;;23.10;69.50;;;;;;5014948;28;96008;-46
2021/03/16 05:53:55;;;;;;;1.98;1.88;;;23.10;69.70;;;;;;5010849;28;96656;-48
2021/03/16 05:56:45;;;;;;;1.92;1.83;;;23.10;69.70;;;;;;5005341;28;95761;-48
2021/03/16 05:59:44;;;;;;;2.40;2.20;;;23.10;69.70;;;;;;5019442;28;96026;-45
2021/03/16 06:02:36;;;;;;;2.58;2.08;;;23.10;69.80;;;;;;5016141;28;96070;-45
2021/03/16 06:05:24;;;;;;;1.92;1.80;;;23.10;70.00;;;;;;5004958;27;95589;-45
2021/03/16 06:08:12;;;;;;;2.40;2.20;;;23.10;70.10;;;;;;5002392;28;95825;-45
2021/03/16 06:11:00;;;;;;;2.50;2.30;;;23.10;70.20;;;;;;5004893;28;95844;-46
2021/03/16 06:13:54;;;;;;;2.83;2.53;;;23.10;69.90;;;;;;5006820;28;95894;-46
2021/03/16 06:16:43;;;;;;;3.47;2.70;;;23.10;69.90;;;;;;4999991;28;95828;-46
2021/03/16 06:19:36;;;;;;;4.22;3.00;;;23.10;70.00;;;;;;5008932;28;96030;-46
2021/03/16 06:22:25;;;;;;;3.40;3.03;;;23.10;70.10;;;;;;5008324;28;97537;-46
2021/03/16 06:25:13;;;;;;;4.32;3.22;;;23.10;70.10;;;;;;4995941;28;95824;-46
2021/03/16 06:28:06;;;;;;;5.15;3.80;;;23.10;70.00;;;;;;5010371;28;95893;-46
2021/03/16 06:30:56;;;;;;;5.65;3.78;;;23.10;70.20;;;;;;5002525;28;95859;-46
2021/03/16 06:33:46;;;;;;;4.40;3.50;;;23.10;70.20;;;;;;5006163;28;96328;-46
2021/03/16 06:36:38;;;;;;;3.70;3.35;;;23.10;70.20;;;;;;5008484;28;96002;-46
2021/03/16 06:39:28;;;;;;;5.35;3.63;;;23.10;70.20;;;;;;5003586;28;95288;-46
2021/03/16 06:42:29;;;;;;;5.53;3.92;;;23.00;70.30;;;;;;5006154;28;95896;-45
2021/03/16 06:45:29;;;;;;;7.07;3.67;;;23.10;70.10;;;;;;5011685;27;96122;-37
2021/03/16 06:48:18;;;;;;;10.82;3.72;;;23.10;70.40;;;;;;5018463;28;95562;-37
2021/03/16 06:51:12;;;;;;;6.75;3.95;;;23.10;70.40;;;;;;5014944;28;96733;-37
2021/03/16 06:54:10;;;;;;;4.28;3.72;;;23.10;70.20;;;;;;5004882;28;100664;-37
2021/03/16 06:57:01;;;;;;;5.55;4.32;;;23.00;70.30;;;;;;5014534;28;96164;-38
2021/03/16 06:59:52;;;;;;;4.40;3.42;;;23.10;70.50;;;;;;5019065;28;95958;-38
2021/03/16 07:02:40;;;;;;;4.07;3.67;;;23.10;70.60;;;;;;5023885;28;95549;-37
2021/03/16 07:05:29;;;;;;;12.93;3.75;;;23.10;70.30;;;;;;5016091;28;95863;-46
2021/03/16 07:08:18;;;;;;;6.60;3.60;;;23.10;70.10;;;;;;5006837;28;95521;-46
2021/03/16 07:11:18;;;;;;;3.83;3.42;;;23.10;70.20;;;;;;5018914;28;96229;-46
2021/03/16 07:14:08;;;;;;;4.40;3.70;;;23.10;70.20;;;;;;5006301;28;95853;-46
2021/03/16 07:17:00;;;;;;;3.67;3.17;;;23.10;70.00;;;;;;5011388;28;95889;-47
2021/03/16 07:19:58;;;;;;;4.07;3.13;;;23.10;70.10;;;;;;5020598;28;95824;-47
2021/03/16 07:22:53;;;;;;;3.53;3.20;;;23.10;69.70;;;;;;5014880;28;96119;-47
2021/03/16 07:25:42;;;;;;;3.60;3.13;;;23.00;69.70;;;;;;5013693;28;99192;-46
2021/03/16 07:28:33;;;;;;;3.80;2.67;;;23.10;70.00;;;;;;5014686;28;95925;-46
2021/03/16 07:31:23;;;;;;;5.00;3.17;;;23.00;69.90;;;;;;5006717;28;95856;-46
2021/03/16 07:34:19;;;;;;;3.65;2.90;;;23.00;69.60;;;;;;5008095;28;95761;-46
2021/03/16 07:37:09;;;;;;;7.85;3.20;;;23.00;69.40;;;;;;4991576;28;96116;-45
2021/03/16 07:40:03;;;;;;;5.88;3.03;;;23.00;69.30;;;;;;5008705;28;95913;-46
2021/03/16 07:42:53;;;;;;;3.55;3.25;;;23.00;69.60;;;;;;5008124;28;96006;-46
2021/03/16 07:45:42;;;;;;;6.20;3.50;;;23.00;69.50;;;;;;5008524;28;95633;-46
2021/03/16 07:48:33;;;;;;;3.70;2.60;;;23.00;69.90;;;;;;5005179;28;95671;-46
2021/03/16 07:51:33;;;;;;;3.33;2.88;;;23.00;69.10;;;;;;5009096;28;100191;-46
2021/03/16 07:54:22;;;;;;;3.85;3.15;;;23.00;69.20;;;;;;5017019;28;96424;-46
2021/03/16 07:57:11;;;;;;;3.60;2.88;;;22.90;69.30;;;;;;5018648;28;95729;-46
2021/03/16 08:00:02;;;;;;;3.50;2.70;;;22.90;69.40;;;;;;5021789;28;96025;-47
2021/03/16 08:02:58;;;;;;;3.63;3.33;;;22.90;68.90;;;;;;5020072;28;95885;-46
2021/03/16 08:05:46;;;;;;;2.95;2.60;;;22.90;68.70;;;;;;5020164;28;97147;-46
2021/03/16 08:08:42;;;;;;;3.65;2.90;;;22.80;67.90;;;;;;5016982;28;95396;-46
2021/03/16 08:11:39;;;;;;;4.65;2.90;;;22.80;69.10;;;;;;5020189;28;95781;-46
2021/03/16 08:14:31;;;;;;;2.63;2.42;;;22.80;69.30;;;;;;5016781;28;95742;-46
2021/03/16 08:17:34;;;;;;;2.70;2.50;;;22.80;68.30;;;;;;5005137;28;95946;-46
2021/03/16 08:20:27;;;;;;;4.20;2.88;;;22.80;68.50;;;;;;5013184;28;95868;-39
2021/03/16 08:23:14;;;;;;;3.97;2.50;;;22.80;68.70;;;;;;5014505;28;95869;-39
2021/03/16 08:26:05;;;;;;;5.72;2.25;;;22.70;68.90;;;;;;5019164;28;100185;-38
2021/03/16 08:28:54;;;;;;;;;;;22.70;68.50;;;;;;5020204;28;95908;-38
2021/03/16 08:31:45;;;;;;;3.75;2.53;;;22.70;68.80;;;;;;5020369;28;96425;-38
2021/03/16 08:34:37;;;;;;;5.05;2.55;;;22.60;69.00;;;;;;5008067;28;95823;-38
2021/03/16 08:37:39;;;;;;;5.35;1.98;;;22.50;69.00;;;;;;5010342;28;98001;-38
2021/03/16 08:40:39;;;;;;;3.05;2.10;;;22.60;70.30;;;;;;5011304;28;96656;-38
2021/03/16 08:43:27;;;;;;;4.70;2.65;;;22.50;69.20;;;;;;5014075;28;95813;-46
2021/03/16 08:46:37;;;;;;;6.63;2.47;;;22.50;68.60;;;;;;5005512;28;95788;-46
2021/03/16 08:49:27;;;;;;;3.10;2.30;;;22.40;69.30;;;;;;5015063;28;95763;-46
2021/03/16 08:52:26;;;;;;;2.88;2.28;;;22.40;69.50;;;;;;5011683;28;95913;-47
2021/03/16 08:55:25;;;;;;;4.20;2.80;;;22.40;69.50;;;;;;5014824;28;95805;-46
2021/03/16 08:58:17;;;;;;;4.75;2.22;;;22.30;69.30;;;;;;5013640;28;95652;-46
2021/03/16 09:01:05;;;;;;;4.93;2.30;;;22.20;69.60;;;;;;5020208;28;95797;-46
2021/03/16 09:03:58;;;;;;;2.72;2.45;;;22.20;69.40;;;;;;5014141;28;97997;-47
2021/03/16 09:06:50;;;;;;;4.43;2.27;;;22.00;69.40;;;;;;5010937;28;95895;-46
2021/03/16 09:09:37;;;;;;;3.35;2.15;;;22.10;70.50;;;;;;4994939;28;97011;-47
2021/03/16 09:12:30;;;;;;;7.65;2.10;;;22.10;69.20;;;;;;5006406;28;95846;-46
2021/03/16 09:15:31;;;;;;;4.40;1.95;;;22.00;69.40;;;;;;5015692;28;96214;-47
2021/03/16 09:18:23;;;;;;;2.55;2.13;;;21.90;69.60;;;;;;5014070;28;95711;-47
2021/03/16 09:21:11;;;;;;;2.95;2.10;;;21.80;69.00;;;;;;5016463;28;95792;-46
2021/03/16 09:24:04;;;;;;;2.38;1.95;;;21.80;69.40;;;;;;5018055;28;95649;-46
2021/03/16 09:26:54;;;;;;;2.45;1.73;;;21.80;69.50;;;;;;5015148;28;96254;-46
2021/03/16 09:29:46;;;;;;;3.10;1.73;;;21.70;69.40;;;;;;5010169;28;95661;-45
2021/03/16 09:32:42;;;;;;;2.25;1.83;;;21.60;69.40;;;;;;5001074;28;95251;-46
2021/03/16 09:35:30;;;;;;;2.35;1.67;;;21.70;69.20;;;;;;5017423;28;95821;-45
2021/03/16 09:38:19;;;;;;;2.80;1.67;;;21.60;69.20;;;;;;5011728;28;95702;-45
2021/03/16 09:41:16;;;;;;;2.35;1.48;;;21.50;68.80;;;;;;5017263;28;96287;-45
2021/03/16 09:43:46;;;;;;;3.87;1.70;;;21.50;69.10;;;;;;5021074;28;95671;-45
2021/03/16 09:46:16;;;;;;;;;;;21.40;68.90;;;;;;5023172;28;98812;-45
2021/03/16 09:48:56;;;;;;;1.60;1.13;;;21.50;68.90;;;;;;5019104;28;97071;-45
2021/03/16 09:51:28;;;;;;;2.30;1.48;;;21.40;68.40;;;;;;5016276;27;95935;-45
2021/03/16 09:54:00;;;;;;;4.63;2.42;;;21.30;68.50;;;;;;5020721;28;96326;-45
2021/03/16 09:56:33;;;;;;;2.42;1.30;;;21.30;68.60;;;;;;5022734;28;95770;-45
2021/03/16 09:59:04;;;;;;;4.93;1.60;;;21.30;68.70;;;;;;5000453;28;97025;-44
2021/03/16 10:01:45;;;;;;;2.03;1.42;;;21.20;68.50;;;;;;5000425;28;101717;-45
2021/03/16 10:04:19;;;;;;;;;;;21.10;68.70;;;;;;5011252;27;96636;-48
2021/03/16 10:06:57;;;;;;;1.88;1.23;;;21.10;68.90;;;;;;5018388;28;96051;-44
2021/03/16 10:09:27;;;;;;;2.67;1.08;;;21.10;69.00;;;;;;5018434;28;96136;-45
2021/03/16 10:11:57;;;;;;;1.88;1.23;;;21.10;69.30;;;;;;4999862;28;96000;-46
2021/03/16 10:14:33;;;;;;;1.52;1.20;;;21.00;69.40;;;;;;5003741;28;95577;-45
2021/03/16 10:17:03;;;;;;;1.88;1.38;;;21.00;69.30;;;;;;5019137;28;95768;-45
2021/03/16 10:19:33;;;;;;;2.58;1.05;;;21.00;69.50;;;;;;5016961;27;95953;-45
2021/03/16 10:22:12;;;;;;;1.85;1.20;;;21.00;69.20;;;;;;5025576;28;95845;-44
2021/03/16 10:24:44;;;;;;;2.85;1.13;;;21.00;69.50;;;;;;5009484;28;95705;-45
2021/03/16 10:27:27;;;;;;;3.65;1.45;;;21.00;69.50;;;;;;5009987;28;95997;-46
2021/03/16 10:30:02;;;;;;;3.15;1.60;;;21.00;69.40;;;;;;5014346;28;96831;-45
2021/03/16 10:32:35;;;;;;;2.22;1.30;;;21.00;69.50;;;;;;5008257;28;95854;-45
2021/03/16 10:35:05;;;;;;;1.35;1.15;;;21.00;69.60;;;;;;5006123;28;96158;-46
2021/03/16 10:37:45;;;;;;;2.30;1.00;;;21.00;69.30;;;;;;5016132;28;96003;-44
2021/03/16 10:40:17;;;;;;;1.60;0.80;;;21.00;69.70;;;;;;5009020;28;96420;-45
2021/03/16 10:42:48;;;;;;;2.28;0.95;;;21.00;69.50;;;;;;5018442;28;96119;-45
2021/03/16 10:45:20;;;;;;;2.58;1.15;;;21.00;69.60;;;;;;5009862;28;95755;-46
2021/03/16 10:47:50;;;;;;;2.40;1.20;;;21.00;69.30;;;;;;5010568;28;95793;-45
2021/03/16 10:50:23;;;;;;;1.30;1.10;;;21.00;69.50;;;;;;5026877;28;96947;-43
2021/03/16 10:52:57;;;;;;;1.63;1.20;;;21.00;69.60;;;;;;5017443;28;96671;-47
2021/03/16 10:55:29;;;;;;;1.38;1.10;;;20.90;69.30;;;;;;5001691;28;95421;-46
2021/03/16 10:58:00;;;;;;;1.30;0.80;;;20.90;70.00;;;;;;5015035;28;95543;-45
2021/03/16 11:00:33;;;;;;;2.95;1.13;;;20.90;69.70;;;;;;5005072;28;96734;-45
2021/03/16 11:03:03;;;;;;;6.78;1.38;;;20.80;69.60;;;;;;5017434;28;101322;-44
2021/03/16 11:05:37;;;;;;;3.20;0.82;;;20.80;69.50;;;;;;5013278;28;97127;-45
2021/03/16 11:08:10;;;;;;;3.45;1.10;;;20.80;69.70;;;;;;4988183;28;96137;-44
2021/03/16 11:10:39;;;;;;;1.85;1.25;;;20.70;70.00;;;;;;5005411;28;96149;-47
2021/03/16 11:13:10;;;;;;;4.05;1.58;;;20.70;70.00;;;;;;5019681;28;95878;-45
2021/03/16 11:15:45;;;;;;;3.50;0.90;;;20.70;70.10;;;;;;5041563;27;95852;-45
2021/03/16 11:18:19;;;;;;;2.08;0.80;;;20.60;70.10;;;;;;5011865;28;95768;-45
2021/03/16 11:20:49;;;;;;;7.00;1.55;;;20.60;69.90;;;;;;5020629;28;96014;-46
2021/03/16 11:23:21;;;;;;;3.08;1.02;;;20.50;70.10;;;;;;4996724;28;95979;-45
2021/03/16 11:25:51;;;;;;;2.70;1.02;;;20.40;70.10;;;;;;5029437;27;95776;-45
2021/03/16 11:28:22;;;;;;;3.70;0.95;;;20.40;70.30;;;;;;4992993;28;95910;-45
2021/03/16 11:30:53;;;;;;;2.60;1.10;;;20.40;70.50;;;;;;5017491;28;96538;-45
2021/03/16 11:33:25;;;;;;;3.92;1.42;;;20.30;70.50;;;;;;5009012;28;95811;-45
2021/03/16 11:36:15;;;;;;;2.45;1.08;;;20.30;70.50;;;;;;5007215;28;95839;-46
2021/03/16 11:39:07;;;;;;;3.83;1.40;;;20.30;70.60;;;;;;5009454;28;95733;-45
2021/03/16 11:41:57;;;;;;;7.13;3.58;;;20.30;70.60;;;;;;5003089;28;95850;-40
2021/03/16 11:44:46;;;;;;;4.63;1.48;;;20.20;70.70;;;;;;5004345;28;98216;-45
2021/03/16 11:47:35;;;;;;;3.35;1.50;;;20.10;70.70;;;;;;5007855;27;96062;-47
2021/03/16 11:50:25;;;;;;;4.43;1.23;;;20.00;70.80;;;;;;5012921;28;95783;-45
2021/03/16 11:53:15;;;;;;;3.30;1.40;;;20.00;71.20;;;;;;5017697;28;95939;-46
2021/03/16 11:56:04;;;;;;;2.45;1.13;;;19.90;71.30;;;;;;5002037;28;103422;-45
2021/03/16 11:58:53;;;;;;;2.10;1.45;;;19.90;71.10;;;;;;4999204;28;95836;-45
2021/03/16 12:01:44;;;;;;;6.18;2.22;;;19.80;71.60;;;;;;5006749;28;95597;-46
2021/03/16 12:04:39;;;;;;;5.60;1.58;;;19.80;72.20;;;;;;5012264;28;96704;-45
2021/03/16 12:07:28;;;;;;;3.63;1.85;;;19.80;71.70;;;;;;5012929;28;97851;-44
2021/03/16 12:10:16;;;;;;;3.33;1.42;;;19.70;71.70;;;;;;5023321;28;95295;-45
2021/03/16 12:13:04;;;;;;;3.33;1.70;;;19.60;71.90;;;;;;5015813;28;95964;-45
2021/03/16 12:15:57;;;;;;;6.45;1.70;;;19.60;72.20;;;;;;5007227;28;95887;-45
2021/03/16 12:18:46;;;;;;;6.05;1.60;;;19.60;72.10;;;;;;5007562;28;95349;-44
2021/03/16 12:21:33;;;;;;;4.78;2.10;;;19.50;72.30;;;;;;5006270;28;95739;-44
2021/03/16 12:24:21;;;;;;;5.55;2.05;;;19.50;72.50;;;;;;5011351;28;95630;-43
2021/03/16 12:27:09;;;;;;;1.95;1.00;;;19.40;72.60;;;;;;5013499;27;95749;-44
2021/03/16 12:29:59;;;;;;;5.22;1.38;;;19.40;72.90;;;;;;5011903;28;95627;-44
2021/03/16 12:32:48;;;;;;;1.27;1.15;;;19.40;72.80;;;;;;5008832;28;95524;-43
2021/03/16 12:35:37;;;;;;;3.67;1.00;;;19.30;73.00;;;;;;5021615;28;95890;-44
2021/03/16 12:38:26;;;;;;;3.92;1.10;;;19.30;73.10;;;;;;5009988;28;95747;-47
2021/03/16 12:41:15;;;;;;;3.67;1.27;;;19.40;74.00;;;;;;5006563;28;95620;-47
2021/03/16 12:44:05;;;;;;;1.73;1.02;;;19.60;75.50;;;;;;5009855;28;95818;-36
2021/03/16 12:46:57;;;;;;;1.30;0.90;;;19.90;75.10;;;;;;5019440;28;95866;-36
2021/03/16 12:49:47;;;;;;;1.83;1.30;;;20.00;74.50;;;;;;5016242;28;96266;-36
2021/03/16 12:52:36;;;;;;;2.33;1.35;;;20.10;74.30;;;;;;5013429;28;95630;-36
2021/03/16 12:55:25;;;;;;;3.30;1.08;;;20.20;74.50;;;;;;5016608;28;95828;-36
2021/03/16 12:58:15;;;;;;;2.70;1.17;;;20.10;74.30;;;;;;5018091;28;95952;-35
2021/03/16 13:01:04;;;;;;;2.38;1.00;;;20.20;75.00;;;;;;5010142;28;96147;-35
2021/03/16 13:03:54;;;;;;;2.20;1.10;;;20.20;75.00;;;;;;5008172;28;95811;-35
2021/03/16 13:06:42;;;;;;;2.55;1.10;;;20.20;75.20;;;;;;4992545;28;95532;-37
2021/03/16 13:09:31;;;;;;;2.05;1.20;;;20.20;75.00;;;;;;5011677;28;95840;-35
2021/03/16 13:12:20;;;;;;;1.90;0.95;;;20.20;75.10;;;;;;5020121;27;95909;-44
2021/03/16 13:15:10;;;;;;;3.90;1.52;;;20.20;75.30;;;;;;5013982;28;95609;-44
2021/03/16 13:18:00;;;;;;;3.42;0.93;;;20.20;75.30;;;;;;5011052;28;95428;-44
2021/03/16 13:20:49;;;;;;;2.97;1.00;;;20.30;75.50;;;;;;5006442;28;95942;-44
2021/03/16 13:23:37;;;;;;;1.08;0.98;;;20.20;76.00;;;;;;5009622;28;96220;-44
2021/03/16 13:26:27;;;;;;;3.13;1.10;;;20.20;75.40;;;;;;5012214;28;95832;-44
2021/03/16 13:29:33;;;;;;;4.00;1.00;;;20.20;75.60;;;;;;5014598;28;100551;-44
2021/03/16 13:32:22;;;;;;;1.50;0.90;;;20.20;75.60;;;;;;5013419;28;95705;-44
2021/03/16 13:35:11;;;;;;;3.72;1.65;;;20.20;75.60;;;;;;5008819;28;96164;-44
2021/03/16 13:38:00;;;;;;;2.80;1.35;;;20.20;75.60;;;;;;5004541;28;95419;-44
2021/03/16 13:40:49;;;;;;;1.70;1.13;;;20.10;75.60;;;;;;5006784;28;95673;-44
2021/03/16 13:43:37;;;;;;;1.88;1.10;;;20.20;75.70;;;;;;5012027;28;97183;-44
2021/03/16 13:46:27;;;;;;;2.83;1.15;;;20.20;75.60;;;;;;5008144;28;96069;-44
2021/03/16 13:49:16;;;;;;;2.00;0.90;;;20.20;75.60;;;;;;5008250;28;95823;-44
2021/03/16 13:52:04;;;;;;;1.48;1.35;;;20.10;75.60;;;;;;4991077;28;95581;-44
2021/03/16 13:54:58;;;;;;;1.38;1.23;;;20.10;75.60;;;;;;5006461;28;104282;-43
2021/03/16 13:57:48;;;;;;;0.98;0.80;;;20.10;75.70;;;;;;5005501;28;95810;-44
2021/03/16 14:00:38;;;;;;;1.42;0.90;;;20.10;75.70;;;;;;5011788;28;95406;-44
2021/03/16 14:03:28;;;;;;;1.27;1.10;;;20.10;75.50;;;;;;5025644;28;95660;-44
2021/03/16 14:06:22;;;;;;;1.40;1.00;;;20.10;75.60;;;;;;5017774;28;96693;-44
2021/03/16 14:09:12;;;;;;;1.80;0.98;;;20.10;75.70;;;;;;5009681;28;96016;-44
2021/03/16 14:12:00;;;;;;;2.90;1.30;;;20.00;75.60;;;;;;5008802;28;97588;-44
2021/03/16 14:14:50;;;;;;;1.42;1.20;;;20.00;75.60;;;;;;5003897;28;95924;-44
2021/03/16 14:17:40;;;;;;;3.13;1.33;;;20.00;75.60;;;;;;5007489;28;95632;-44
2021/03/16 14:20:31;;;;;;;0.85;0.80;;;20.00;75.60;;;;;;5010140;28;96210;-44
2021/03/16 14:23:19;;;;;;;2.73;1.37;;;20.00;75.70;;;;;;5010658;28;95551;-45
2021/03/16 14:26:09;;;;;;;2.65;1.30;;;20.00;75.70;;;;;;5020619;28;96600;-44